KSTF

Details ICAO KSTF
Name GEORGE M BRYAN
Region United States
Timezone America/Chicago (UTC-6.0)
Plans Departing 3
Arriving 2
Stats Elevation 332 ft / 101 m (AMSL)
Location 33.433124° -88.848604°
Runways 1
Magnetic Variation 1.996° W
Sunrise 2017-12-16 12:54:11 UTC / 2017-12-16 06:54:11 Local
Sunset 2017-12-16 22:50:52 UTC / 2017-12-16 16:50:52 Local
Advertisement - Login to hide

Runways

ID Width Length Bearing (true) Bearing (mag) Surface Threshold Offset Overrun Length
18 150 ft / 46 m 5,566 ft / 1,696 m 178.56° 180.56° Asphalt 1,381 ft / 421 m 0 ft / 0 m
36 150 ft / 46 m 5,566 ft / 1,696 m 358.56° 0.56° Asphalt 0 ft / 0 m 0 ft / 0 m

Map

Weather


0- 5 10 15 20 25 30 35+ Temperature / ° C

Clouds and Precipitation
Forecast for 2017-12-16 18:00 UTC. Updated 2 hours ago

Ground ~20,000 ft ~40,000 ft Winds

METAR

KSTF 161515Z AUTO 16003KT 10SM CLR 00/00 A3033 RMK AO2

TAF

Not found

Frequencies

Recorded 118.97 MHz AWOS 3
Clearance 126.25 MHz COLUMBUS CLNC DEL
Unicom 122.70 MHz CTAF/UNICOM
Approach 135.60 MHz COLUMBUS APP/DEP
Warning: Do not use this data for real-world aviation or navigation. No guarantee of current accuracy is given.